createdAt,value
2017-05-09T00:00:28.220Z,1015.67
2017-05-09T00:01:08.737Z,1015.66
2017-05-09T00:01:49.271Z,1015.67
2017-05-09T00:02:29.814Z,1015.66
2017-05-09T00:03:10.337Z,1015.67
2017-05-09T00:03:50.880Z,1015.68
2017-05-09T00:04:31.420Z,1015.68
2017-05-09T00:05:11.937Z,1015.66
2017-05-09T00:05:52.475Z,1015.71
2017-05-09T00:06:33.007Z,1015.67
2017-05-09T00:07:13.532Z,1015.71
2017-05-09T00:07:54.061Z,1015.7
2017-05-09T00:08:34.597Z,1015.67
2017-05-09T00:09:15.129Z,1015.73
2017-05-09T00:09:55.701Z,1015.71
2017-05-09T00:10:36.234Z,1015.71
2017-05-09T00:11:16.772Z,1015.68
2017-05-09T00:11:57.297Z,1015.71
2017-05-09T00:12:37.825Z,1015.7
2017-05-09T00:13:18.359Z,1015.69
2017-05-09T00:13:58.893Z,1015.69
2017-05-09T00:14:39.417Z,1015.7
2017-05-09T00:15:19.937Z,1015.7
2017-05-09T00:16:00.467Z,1015.71
2017-05-09T00:16:41.006Z,1015.72
2017-05-09T00:17:21.546Z,1015.69
2017-05-09T00:18:02.085Z,1015.7
2017-05-09T00:18:42.616Z,1015.68
2017-05-09T00:19:23.134Z,1015.69
2017-05-09T00:20:03.670Z,1015.69
2017-05-09T00:20:44.199Z,1015.72
2017-05-09T00:21:24.734Z,1015.7
2017-05-09T00:22:05.282Z,1015.72
2017-05-09T00:22:45.813Z,1015.67
2017-05-09T00:23:26.344Z,1015.65
2017-05-09T00:24:06.877Z,1015.66
2017-05-09T00:24:47.423Z,1015.62
2017-05-09T00:25:27.957Z,1015.61
2017-05-09T00:26:08.479Z,1015.61
2017-05-09T00:26:49.005Z,1015.61
2017-05-09T00:27:29.529Z,1015.59
2017-05-09T00:28:10.062Z,1015.6
2017-05-09T00:28:50.592Z,1015.66
2017-05-09T00:29:31.126Z,1015.67
2017-05-09T00:30:11.648Z,1015.67
2017-05-09T00:30:52.176Z,1015.67
2017-05-09T00:31:32.712Z,1015.69
2017-05-09T00:32:13.232Z,1015.69
2017-05-09T00:32:53.754Z,1015.67
2017-05-09T00:33:34.289Z,1015.71
2017-05-09T00:34:14.819Z,1015.69
2017-05-09T00:34:55.357Z,1015.66
2017-05-09T00:35:35.895Z,1015.69
2017-05-09T00:36:16.430Z,1015.71
2017-05-09T00:36:56.963Z,1015.72
2017-05-09T00:37:37.492Z,1015.72
2017-05-09T00:38:18.037Z,1015.75
2017-05-09T00:38:58.562Z,1015.7
2017-05-09T00:39:39.096Z,1015.74
2017-05-09T00:40:19.630Z,1015.74
2017-05-09T00:41:00.155Z,1015.7
2017-05-09T00:41:40.700Z,1015.72
2017-05-09T00:42:21.250Z,1015.71
2017-05-09T00:43:01.764Z,1015.71
2017-05-09T00:43:42.300Z,1015.71
2017-05-09T00:44:22.832Z,1015.7
2017-05-09T00:45:03.360Z,1015.69
2017-05-09T00:45:43.897Z,1015.72
2017-05-09T00:46:24.436Z,1015.7
2017-05-09T00:47:04.970Z,1015.73
2017-05-09T00:47:45.501Z,1015.72
2017-05-09T00:48:26.055Z,1015.7
2017-05-09T00:49:06.568Z,1015.74
2017-05-09T00:49:47.102Z,1015.71
2017-05-09T00:50:27.632Z,1015.72
2017-05-09T00:51:08.167Z,1015.72
2017-05-09T00:51:48.703Z,1015.75
2017-05-09T00:52:29.239Z,1015.73
2017-05-09T00:53:09.762Z,1015.77
2017-05-09T00:53:50.292Z,1015.75
2017-05-09T00:54:30.831Z,1015.77
2017-05-09T00:55:11.354Z,1015.76
2017-05-09T00:55:51.891Z,1015.77
2017-05-09T00:56:32.416Z,1015.75
2017-05-09T00:57:12.961Z,1015.77
2017-05-09T00:57:53.486Z,1015.77
2017-05-09T00:58:34.023Z,1015.77
2017-05-09T00:59:14.559Z,1015.76
2017-05-09T00:59:55.081Z,1015.77
2017-05-09T01:00:35.613Z,1015.78
2017-05-09T01:01:16.145Z,1015.77
2017-05-09T01:01:56.679Z,1015.76
2017-05-09T01:02:37.211Z,1015.74
2017-05-09T01:03:17.725Z,1015.73
2017-05-09T01:03:58.265Z,1015.74
2017-05-09T01:04:38.791Z,1015.76
2017-05-09T01:05:19.328Z,1015.73
2017-05-09T01:05:59.854Z,1015.72
2017-05-09T01:06:40.395Z,1015.71
2017-05-09T01:07:20.920Z,1015.7
2017-05-09T01:08:01.470Z,1015.7
2017-05-09T01:08:41.980Z,1015.66
2017-05-09T01:09:22.517Z,1015.69
2017-05-09T01:10:03.034Z,1015.69
2017-05-09T01:10:43.567Z,1015.69
2017-05-09T01:11:24.101Z,1015.66
2017-05-09T01:12:04.639Z,1015.65
2017-05-09T01:14:23.951Z,1015.65
2017-05-09T01:15:04.472Z,1015.65
2017-05-09T01:15:45.010Z,1015.71
2017-05-09T01:16:25.543Z,1015.69
2017-05-09T01:17:06.079Z,1015.68
2017-05-09T01:17:46.618Z,1015.67
2017-05-09T01:20:01.609Z,1015.62
2017-05-09T01:20:42.136Z,1015.64
2017-05-09T01:21:22.662Z,1015.64
2017-05-09T01:22:03.194Z,1015.66
2017-05-09T01:22:43.729Z,1015.64
2017-05-09T01:23:24.257Z,1015.63
2017-05-09T01:24:04.783Z,1015.64
2017-05-09T01:24:45.350Z,1015.6
2017-05-09T01:25:25.880Z,1015.62
2017-05-09T01:26:06.416Z,1015.62
2017-05-09T01:26:46.933Z,1015.59
2017-05-09T01:27:27.464Z,1015.63
2017-05-09T01:28:07.999Z,1015.64
2017-05-09T01:28:48.535Z,1015.61
2017-05-09T01:29:29.065Z,1015.61
2017-05-09T01:30:09.595Z,1015.63
2017-05-09T01:30:50.130Z,1015.63
2017-05-09T01:31:30.662Z,1015.61
2017-05-09T01:32:11.201Z,1015.62
2017-05-09T01:32:51.720Z,1015.63
2017-05-09T01:33:32.265Z,1015.63
2017-05-09T01:34:12.785Z,1015.62
2017-05-09T01:34:53.317Z,1015.62
2017-05-09T01:35:33.865Z,1015.6
2017-05-09T01:36:14.370Z,1015.6
2017-05-09T01:36:54.898Z,1015.61
2017-05-09T01:37:35.435Z,1015.6
2017-05-09T01:38:15.970Z,1015.58
2017-05-09T01:38:56.505Z,1015.6
2017-05-09T01:39:37.033Z,1015.59
2017-05-09T01:40:17.567Z,1015.6
2017-05-09T01:40:58.111Z,1015.58
2017-05-09T01:41:38.639Z,1015.61
2017-05-09T01:42:19.168Z,1015.58
2017-05-09T01:42:59.700Z,1015.65
2017-05-09T01:43:40.228Z,1015.62
2017-05-09T01:44:20.764Z,1015.6
2017-05-09T01:45:01.296Z,1015.59
2017-05-09T01:45:41.833Z,1015.6
2017-05-09T01:46:22.366Z,1015.6
2017-05-09T01:47:02.902Z,1015.56
2017-05-09T01:47:43.428Z,1015.57
2017-05-09T01:48:23.966Z,1015.59
2017-05-09T01:49:04.499Z,1015.57
2017-05-09T01:49:45.035Z,1015.54
2017-05-09T01:50:25.571Z,1015.59
2017-05-09T01:51:06.089Z,1015.59
2017-05-09T01:51:46.611Z,1015.54
2017-05-09T01:52:27.145Z,1015.56
2017-05-09T01:53:07.678Z,1015.56
2017-05-09T01:53:48.210Z,1015.57
2017-05-09T01:54:28.732Z,1015.54
2017-05-09T01:55:09.272Z,1015.57
2017-05-09T01:55:49.806Z,1015.52
2017-05-09T01:56:30.335Z,1015.53
2017-05-09T01:57:10.861Z,1015.58
2017-05-09T01:57:51.384Z,1015.55
2017-05-09T01:58:31.915Z,1015.57
2017-05-09T01:59:12.448Z,1015.53
2017-05-09T01:59:52.968Z,1015.54
2017-05-09T02:00:33.483Z,1015.54
2017-05-09T02:01:14.014Z,1015.53
2017-05-09T02:01:54.551Z,1015.55
2017-05-09T02:02:35.086Z,1015.57
2017-05-09T02:03:15.619Z,1015.59
2017-05-09T02:03:56.150Z,1015.57
2017-05-09T02:04:36.684Z,1015.56
2017-05-09T02:05:17.215Z,1015.57
2017-05-09T02:05:57.744Z,1015.56
2017-05-09T02:06:38.279Z,1015.51
2017-05-09T02:07:18.813Z,1015.55
2017-05-09T02:07:59.345Z,1015.53
2017-05-09T02:08:39.879Z,1015.55
2017-05-09T02:09:20.417Z,1015.56
2017-05-09T02:10:01.028Z,1015.54
2017-05-09T02:10:41.561Z,1015.51
2017-05-09T02:11:22.095Z,1015.49
2017-05-09T02:12:02.625Z,1015.5
2017-05-09T02:12:43.159Z,1015.49
2017-05-09T02:13:23.697Z,1015.52
2017-05-09T02:14:04.223Z,1015.56
2017-05-09T02:14:44.752Z,1015.53
2017-05-09T02:15:25.279Z,1015.5
2017-05-09T02:16:05.812Z,1015.53
2017-05-09T02:16:46.331Z,1015.53
2017-05-09T02:17:26.872Z,1015.53
2017-05-09T02:18:07.396Z,1015.55
2017-05-09T02:18:47.929Z,1015.55
2017-05-09T02:19:28.465Z,1015.52
2017-05-09T02:20:08.998Z,1015.55
2017-05-09T02:20:49.533Z,1015.55
2017-05-09T02:21:30.051Z,1015.54
2017-05-09T02:22:10.586Z,1015.55
2017-05-09T02:22:51.120Z,1015.52
2017-05-09T02:23:31.658Z,1015.55
2017-05-09T02:24:12.202Z,1015.57
2017-05-09T02:24:52.733Z,1015.54
2017-05-09T02:25:33.260Z,1015.54
2017-05-09T02:26:13.800Z,1015.52
2017-05-09T02:26:54.336Z,1015.51
2017-05-09T02:27:34.862Z,1015.49
2017-05-09T02:28:15.396Z,1015.5
2017-05-09T02:28:55.916Z,1015.55
2017-05-09T02:29:36.452Z,1015.52
2017-05-09T02:30:16.985Z,1015.56
2017-05-09T02:30:57.527Z,1015.55
2017-05-09T02:31:38.065Z,1015.52
2017-05-09T02:32:18.598Z,1015.57
2017-05-09T02:32:59.134Z,1015.53
2017-05-09T02:33:39.653Z,1015.57
2017-05-09T02:34:20.185Z,1015.58
2017-05-09T02:35:00.716Z,1015.58
2017-05-09T02:35:41.250Z,1015.56
2017-05-09T02:36:21.788Z,1015.56
2017-05-09T02:37:05.235Z,1015.57
2017-05-09T02:37:45.770Z,1015.59
2017-05-09T02:38:26.311Z,1015.59
2017-05-09T02:39:06.833Z,1015.62
2017-05-09T02:39:47.364Z,1015.59
2017-05-09T02:40:27.898Z,1015.59
2017-05-09T02:41:08.439Z,1015.62
2017-05-09T02:41:48.973Z,1015.57
2017-05-09T02:42:29.503Z,1015.64
2017-05-09T02:43:10.055Z,1015.6
2017-05-09T02:43:50.584Z,1015.59
2017-05-09T02:44:31.116Z,1015.59
2017-05-09T02:45:11.651Z,1015.59
2017-05-09T02:45:52.171Z,1015.64
2017-05-09T02:46:32.704Z,1015.58
2017-05-09T02:47:13.236Z,1015.58
2017-05-09T02:47:53.776Z,1015.6
2017-05-09T02:48:34.303Z,1015.58
2017-05-09T02:49:14.838Z,1015.57
2017-05-09T02:49:55.372Z,1015.56
2017-05-09T02:50:35.903Z,1015.55
2017-05-09T02:51:16.437Z,1015.55
2017-05-09T02:51:56.967Z,1015.53
2017-05-09T02:52:37.497Z,1015.58
2017-05-09T02:53:18.019Z,1015.58
2017-05-09T02:53:58.559Z,1015.58
2017-05-09T02:54:39.100Z,1015.57
2017-05-09T02:55:19.620Z,1015.6
2017-05-09T02:56:00.149Z,1015.57
2017-05-09T02:56:40.683Z,1015.57
2017-05-09T02:57:21.195Z,1015.56
2017-05-09T02:58:01.731Z,1015.57
2017-05-09T02:58:42.253Z,1015.59
2017-05-09T02:59:22.784Z,1015.57
2017-05-09T03:00:03.319Z,1015.58
2017-05-09T03:00:43.844Z,1015.55
2017-05-09T03:01:24.374Z,1015.56
2017-05-09T03:02:04.902Z,1015.57
2017-05-09T03:02:45.428Z,1015.55
2017-05-09T03:03:25.967Z,1015.55
2017-05-09T03:04:06.504Z,1015.56
2017-05-09T03:04:47.036Z,1015.56
2017-05-09T03:05:27.574Z,1015.55
2017-05-09T03:06:08.105Z,1015.55
2017-05-09T03:06:48.669Z,1015.53
2017-05-09T03:07:29.231Z,1015.54
2017-05-09T03:08:09.768Z,1015.56
2017-05-09T03:08:50.298Z,1015.53
2017-05-09T03:09:30.830Z,1015.53
2017-05-09T03:10:11.420Z,1015.56
2017-05-09T03:10:51.949Z,1015.55
2017-05-09T03:11:32.484Z,1015.53
2017-05-09T03:12:13.033Z,1015.56
2017-05-09T03:12:53.554Z,1015.57
2017-05-09T03:13:34.108Z,1015.55
2017-05-09T03:14:14.619Z,1015.62
2017-05-09T03:14:55.141Z,1015.55
2017-05-09T03:15:35.663Z,1015.6
2017-05-09T03:16:16.198Z,1015.58
2017-05-09T03:16:56.736Z,1015.58
2017-05-09T03:17:37.264Z,1015.57
2017-05-09T03:18:17.792Z,1015.54
2017-05-09T03:18:58.323Z,1015.57
2017-05-09T03:19:38.855Z,1015.54
2017-05-09T03:20:19.388Z,1015.53
2017-05-09T03:20:59.916Z,1015.56
2017-05-09T03:21:40.444Z,1015.52
2017-05-09T03:22:20.973Z,1015.57
2017-05-09T03:23:01.512Z,1015.51
2017-05-09T03:23:42.039Z,1015.56
2017-05-09T03:24:22.567Z,1015.53
2017-05-09T03:25:03.097Z,1015.52
2017-05-09T03:25:43.631Z,1015.52
2017-05-09T03:26:24.161Z,1015.51
2017-05-09T03:27:04.692Z,1015.52
2017-05-09T03:27:45.220Z,1015.51
2017-05-09T03:28:25.756Z,1015.51
2017-05-09T03:29:06.338Z,1015.49
2017-05-09T03:29:46.880Z,1015.47
2017-05-09T03:30:27.418Z,1015.49
2017-05-09T03:31:07.950Z,1015.5
2017-05-09T03:31:48.469Z,1015.53
2017-05-09T03:32:28.997Z,1015.5
2017-05-09T03:33:09.537Z,1015.52
2017-05-09T03:33:50.069Z,1015.5
2017-05-09T03:34:30.598Z,1015.51
2017-05-09T03:35:11.121Z,1015.49
2017-05-09T03:35:51.648Z,1015.48
2017-05-09T03:36:32.184Z,1015.48
2017-05-09T03:37:12.717Z,1015.48
2017-05-09T03:37:53.249Z,1015.51
2017-05-09T03:38:33.805Z,1015.44
2017-05-09T03:39:14.341Z,1015.45
2017-05-09T03:39:54.867Z,1015.48
2017-05-09T03:40:35.393Z,1015.44
2017-05-09T03:41:15.926Z,1015.5
2017-05-09T03:41:56.452Z,1015.5
2017-05-09T03:42:37.010Z,1015.5
2017-05-09T03:43:17.533Z,1015.5
2017-05-09T03:43:58.129Z,1015.51
2017-05-09T03:44:38.673Z,1015.53
2017-05-09T03:45:19.206Z,1015.51
2017-05-09T03:45:59.718Z,1015.51
2017-05-09T03:46:40.250Z,1015.54
2017-05-09T03:47:20.786Z,1015.54
2017-05-09T03:48:01.314Z,1015.55
2017-05-09T03:48:41.831Z,1015.53
2017-05-09T03:49:22.371Z,1015.53
2017-05-09T03:50:02.886Z,1015.53
2017-05-09T03:50:43.423Z,1015.51
2017-05-09T03:51:23.937Z,1015.52
2017-05-09T03:52:04.463Z,1015.51
2017-05-09T03:52:44.993Z,1015.55
2017-05-09T03:53:25.530Z,1015.55
2017-05-09T03:54:06.063Z,1015.58
2017-05-09T03:54:46.590Z,1015.58
2017-05-09T03:55:27.125Z,1015.57
2017-05-09T03:56:07.655Z,1015.57
2017-05-09T03:56:48.190Z,1015.54
2017-05-09T03:57:28.722Z,1015.53
2017-05-09T03:58:09.321Z,1015.51
2017-05-09T03:58:49.877Z,1015.54
2017-05-09T03:59:30.408Z,1015.57
2017-05-09T04:00:10.944Z,1015.53
2017-05-09T04:00:51.480Z,1015.53
2017-05-09T04:01:32.015Z,1015.56
2017-05-09T04:02:12.539Z,1015.54
2017-05-09T04:02:53.109Z,1015.53
2017-05-09T04:03:33.596Z,1015.53
2017-05-09T04:04:14.130Z,1015.55
2017-05-09T04:04:54.665Z,1015.54
2017-05-09T04:05:35.199Z,1015.55
2017-05-09T04:06:15.736Z,1015.57
2017-05-09T04:06:56.262Z,1015.56
2017-05-09T04:07:36.773Z,1015.56
2017-05-09T04:08:17.309Z,1015.53
2017-05-09T04:08:57.843Z,1015.51
2017-05-09T04:09:38.372Z,1015.52
2017-05-09T04:10:18.910Z,1015.54
2017-05-09T04:10:59.445Z,1015.53
2017-05-09T04:11:39.972Z,1015.6
2017-05-09T04:12:20.495Z,1015.57
2017-05-09T04:13:01.039Z,1015.53
2017-05-09T04:13:41.588Z,1015.58
2017-05-09T04:14:22.096Z,1015.6
2017-05-09T04:15:02.638Z,1015.62
2017-05-09T04:15:43.174Z,1015.6
2017-05-09T04:16:23.700Z,1015.62
2017-05-09T04:17:04.235Z,1015.6
2017-05-09T04:17:44.766Z,1015.58
2017-05-09T04:18:25.317Z,1015.58
2017-05-09T04:19:05.837Z,1015.59
2017-05-09T04:19:46.376Z,1015.59
2017-05-09T04:20:26.903Z,1015.58
2017-05-09T04:21:07.439Z,1015.59
2017-05-09T04:21:47.973Z,1015.55
2017-05-09T04:22:28.510Z,1015.58
2017-05-09T04:23:09.045Z,1015.53
2017-05-09T04:23:49.577Z,1015.54
2017-05-09T04:24:30.106Z,1015.51
2017-05-09T04:25:10.644Z,1015.51
2017-05-09T04:25:51.178Z,1015.54
2017-05-09T04:26:31.712Z,1015.53
2017-05-09T04:27:12.241Z,1015.55
2017-05-09T04:27:52.764Z,1015.53
2017-05-09T04:28:33.378Z,1015.54
2017-05-09T04:29:13.917Z,1015.5
2017-05-09T04:29:54.454Z,1015.57
2017-05-09T04:30:34.964Z,1015.57
2017-05-09T04:31:15.497Z,1015.57
2017-05-09T04:31:56.015Z,1015.59
2017-05-09T04:32:36.549Z,1015.58
2017-05-09T04:33:17.284Z,1015.56
2017-05-09T04:33:57.671Z,1015.58
2017-05-09T04:34:38.209Z,1015.55
2017-05-09T04:35:18.763Z,1015.55
2017-05-09T04:35:59.300Z,1015.59
2017-05-09T04:36:39.838Z,1015.54
2017-05-09T04:37:20.381Z,1015.58
2017-05-09T04:38:00.912Z,1015.58
2017-05-09T04:38:41.445Z,1015.6
2017-05-09T04:39:21.989Z,1015.62
2017-05-09T04:40:02.531Z,1015.6
2017-05-09T04:40:43.066Z,1015.6
2017-05-09T04:41:23.583Z,1015.64
2017-05-09T04:42:04.154Z,1015.61
2017-05-09T04:42:44.679Z,1015.64
2017-05-09T04:43:25.218Z,1015.63
2017-05-09T04:44:05.749Z,1015.65
2017-05-09T04:44:46.270Z,1015.7
2017-05-09T04:45:26.956Z,1015.66
2017-05-09T04:46:07.487Z,1015.66
2017-05-09T04:46:48.021Z,1015.65
2017-05-09T04:47:28.554Z,1015.62
2017-05-09T04:48:09.079Z,1015.67
2017-05-09T04:48:49.618Z,1015.64
2017-05-09T04:49:30.144Z,1015.65
2017-05-09T04:50:10.680Z,1015.66
2017-05-09T04:50:51.214Z,1015.65
2017-05-09T04:51:31.751Z,1015.66
2017-05-09T04:52:12.281Z,1015.66
2017-05-09T04:52:52.814Z,1015.67
2017-05-09T04:53:33.348Z,1015.71
2017-05-09T04:54:13.884Z,1015.68
2017-05-09T04:54:54.417Z,1015.65
2017-05-09T04:55:34.955Z,1015.66
2017-05-09T04:56:15.485Z,1015.64
2017-05-09T04:56:56.036Z,1015.62
2017-05-09T04:57:36.564Z,1015.61
2017-05-09T04:58:17.150Z,1015.6
2017-05-09T04:58:57.666Z,1015.65
2017-05-09T04:59:38.202Z,1015.65
2017-05-09T05:00:18.734Z,1015.66
2017-05-09T05:00:59.364Z,1015.66
2017-05-09T05:01:40.151Z,1015.66
2017-05-09T05:02:20.889Z,1015.69
2017-05-09T05:03:01.716Z,1015.64
2017-05-09T05:03:42.470Z,1015.66
2017-05-09T05:04:23.173Z,1015.7
2017-05-09T05:05:03.963Z,1015.68
2017-05-09T05:05:44.620Z,1015.64
2017-05-09T05:06:25.236Z,1015.67
2017-05-09T05:07:05.777Z,1015.66
2017-05-09T05:07:46.325Z,1015.67
2017-05-09T05:08:26.928Z,1015.65
2017-05-09T05:09:07.455Z,1015.66
2017-05-09T05:09:47.994Z,1015.66
2017-05-09T05:10:28.531Z,1015.69
2017-05-09T05:11:09.066Z,1015.63
2017-05-09T05:11:49.599Z,1015.68
2017-05-09T05:12:30.132Z,1015.67
2017-05-09T05:13:10.666Z,1015.65
2017-05-09T05:13:51.195Z,1015.66
2017-05-09T05:14:31.723Z,1015.64
2017-05-09T05:15:12.264Z,1015.6
2017-05-09T05:15:52.792Z,1015.63
2017-05-09T05:16:33.323Z,1015.65
2017-05-09T05:17:13.862Z,1015.59
2017-05-09T05:17:54.399Z,1015.63
2017-05-09T05:18:34.926Z,1015.63
2017-05-09T05:19:15.486Z,1015.6
2017-05-09T05:19:55.993Z,1015.67
2017-05-09T05:20:36.523Z,1015.67
2017-05-09T05:21:17.061Z,1015.65
2017-05-09T05:21:57.593Z,1015.69
2017-05-09T05:22:38.129Z,1015.66
2017-05-09T05:23:18.668Z,1015.7
2017-05-09T05:23:59.180Z,1015.67
2017-05-09T05:24:39.703Z,1015.69
2017-05-09T05:25:20.239Z,1015.72
2017-05-09T05:26:00.782Z,1015.71
2017-05-09T05:26:41.298Z,1015.73
2017-05-09T05:27:21.837Z,1015.72
2017-05-09T05:28:02.376Z,1015.7
2017-05-09T05:28:42.906Z,1015.71
2017-05-09T05:29:23.442Z,1015.71
2017-05-09T05:30:03.972Z,1015.73
2017-05-09T05:30:44.514Z,1015.78
2017-05-09T05:31:25.048Z,1015.75
2017-05-09T05:32:05.580Z,1015.79
2017-05-09T05:32:46.120Z,1015.81
2017-05-09T05:33:26.647Z,1015.81
2017-05-09T05:34:07.189Z,1015.78
2017-05-09T05:34:47.717Z,1015.77
2017-05-09T05:35:28.259Z,1015.83
2017-05-09T05:36:08.783Z,1015.83
2017-05-09T05:36:49.319Z,1015.86
2017-05-09T05:37:29.845Z,1015.81
2017-05-09T05:38:10.380Z,1015.85
2017-05-09T05:38:50.905Z,1015.82
2017-05-09T05:39:31.435Z,1015.84
2017-05-09T05:40:11.971Z,1015.82
2017-05-09T05:40:52.506Z,1015.83
2017-05-09T05:41:33.042Z,1015.85
2017-05-09T05:42:13.594Z,1015.86
2017-05-09T05:42:54.122Z,1015.83
2017-05-09T05:43:34.640Z,1015.86
2017-05-09T05:44:15.178Z,1015.81
2017-05-09T05:44:55.723Z,1015.8
2017-05-09T05:45:36.247Z,1015.81
2017-05-09T05:46:16.769Z,1015.84
2017-05-09T05:46:57.305Z,1015.81
2017-05-09T05:47:37.844Z,1015.82
2017-05-09T05:48:18.379Z,1015.79
2017-05-09T05:48:58.913Z,1015.81
2017-05-09T05:49:39.450Z,1015.77
2017-05-09T05:50:19.994Z,1015.82
2017-05-09T05:51:00.518Z,1015.8
2017-05-09T05:51:41.051Z,1015.79
2017-05-09T05:52:21.712Z,1015.8
2017-05-09T05:53:02.451Z,1015.79
2017-05-09T05:53:42.981Z,1015.8
2017-05-09T05:54:23.516Z,1015.79
2017-05-09T05:55:04.051Z,1015.79
2017-05-09T05:55:44.578Z,1015.76
2017-05-09T05:56:25.117Z,1015.79
2017-05-09T05:57:05.657Z,1015.77
2017-05-09T05:57:46.186Z,1015.76
2017-05-09T05:58:26.722Z,1015.77
2017-05-09T05:59:07.257Z,1015.8
2017-05-09T05:59:47.780Z,1015.81
2017-05-09T06:00:28.322Z,1015.81
2017-05-09T06:01:08.839Z,1015.79
2017-05-09T06:01:49.366Z,1015.8
2017-05-09T06:02:29.907Z,1015.85
2017-05-09T06:03:10.443Z,1015.81
2017-05-09T06:03:50.975Z,1015.86
2017-05-09T06:04:31.517Z,1015.81
2017-05-09T06:05:12.038Z,1015.78
2017-05-09T06:05:52.576Z,1015.82
2017-05-09T06:06:33.109Z,1015.8
2017-05-09T06:07:13.623Z,1015.8
2017-05-09T06:07:54.163Z,1015.79
2017-05-09T06:08:34.692Z,1015.77
2017-05-09T06:09:15.246Z,1015.75
2017-05-09T06:09:55.793Z,1015.78
2017-05-09T06:10:36.328Z,1015.79
2017-05-09T06:11:16.843Z,1015.79
2017-05-09T06:11:57.366Z,1015.77
2017-05-09T06:12:37.905Z,1015.76
2017-05-09T06:13:18.432Z,1015.79
2017-05-09T06:13:58.964Z,1015.78
2017-05-09T06:14:39.497Z,1015.77
2017-05-09T06:15:20.026Z,1015.81
2017-05-09T06:16:00.561Z,1015.79
2017-05-09T06:16:41.096Z,1015.82
2017-05-09T06:17:21.626Z,1015.83
2017-05-09T06:18:02.141Z,1015.83
2017-05-09T06:18:42.725Z,1015.83
2017-05-09T06:19:23.270Z,1015.82
2017-05-09T06:20:03.795Z,1015.85
2017-05-09T06:20:44.330Z,1015.82
2017-05-09T06:21:24.867Z,1015.86
2017-05-09T06:22:05.402Z,1015.81
2017-05-09T06:22:45.936Z,1015.83
2017-05-09T06:23:26.471Z,1015.83
2017-05-09T06:24:06.999Z,1015.83
2017-05-09T06:24:47.547Z,1015.85
2017-05-09T06:25:28.077Z,1015.83
2017-05-09T06:26:08.616Z,1015.87
2017-05-09T06:26:49.156Z,1015.8
2017-05-09T06:27:29.693Z,1015.85
2017-05-09T06:28:10.226Z,1015.79
2017-05-09T06:28:50.760Z,1015.78
2017-05-09T06:29:31.295Z,1015.78
2017-05-09T06:30:11.816Z,1015.77
2017-05-09T06:30:52.348Z,1015.73
2017-05-09T06:31:32.881Z,1015.72
2017-05-09T06:32:13.412Z,1015.73
2017-05-09T06:32:53.994Z,1015.75
2017-05-09T06:33:34.489Z,1015.71
2017-05-09T06:34:15.024Z,1015.72
2017-05-09T06:34:55.560Z,1015.71
2017-05-09T06:35:36.088Z,1015.71
2017-05-09T06:36:16.615Z,1015.75
2017-05-09T06:36:57.159Z,1015.67
2017-05-09T06:37:37.693Z,1015.71
2017-05-09T06:38:18.226Z,1015.69
2017-05-09T06:38:58.764Z,1015.66
2017-05-09T06:39:39.297Z,1015.64
2017-05-09T06:40:19.831Z,1015.62
2017-05-09T06:41:00.360Z,1015.66
2017-05-09T06:41:40.893Z,1015.66
2017-05-09T06:42:21.429Z,1015.67
2017-05-09T06:43:01.966Z,1015.7
2017-05-09T06:43:42.505Z,1015.67
2017-05-09T06:44:23.046Z,1015.63
2017-05-09T06:45:03.581Z,1015.66
2017-05-09T06:45:44.112Z,1015.61
2017-05-09T06:46:24.641Z,1015.69
2017-05-09T06:47:05.181Z,1015.67
2017-05-09T06:47:45.720Z,1015.65
2017-05-09T06:48:26.256Z,1015.65
2017-05-09T06:49:06.794Z,1015.62
2017-05-09T06:49:47.316Z,1015.61
2017-05-09T06:50:27.857Z,1015.63
2017-05-09T06:51:08.392Z,1015.59
2017-05-09T06:51:48.927Z,1015.61
2017-05-09T06:52:29.460Z,1015.58
2017-05-09T06:53:09.995Z,1015.59
2017-05-09T06:53:50.522Z,1015.6
2017-05-09T06:54:31.049Z,1015.61
2017-05-09T06:55:11.591Z,1015.62
2017-05-09T06:55:52.127Z,1015.62
2017-05-09T06:56:32.662Z,1015.64
2017-05-09T06:57:13.204Z,1015.64
2017-05-09T06:57:53.722Z,1015.67
2017-05-09T06:58:34.253Z,1015.65
2017-05-09T06:59:14.802Z,1015.6
2017-05-09T06:59:55.333Z,1015.64
2017-05-09T07:00:35.870Z,1015.66
2017-05-09T07:01:16.413Z,1015.68
2017-05-09T07:01:56.953Z,1015.64
2017-05-09T07:02:37.476Z,1015.65
2017-05-09T07:03:18.012Z,1015.69
2017-05-09T07:03:58.545Z,1015.66
2017-05-09T07:04:39.083Z,1015.65
2017-05-09T07:05:19.619Z,1015.72
2017-05-09T07:06:00.154Z,1015.65
2017-05-09T07:06:40.688Z,1015.63
2017-05-09T07:07:21.222Z,1015.65
2017-05-09T07:08:01.757Z,1015.67
2017-05-09T07:08:42.300Z,1015.68
2017-05-09T07:09:22.836Z,1015.67
2017-05-09T07:10:03.371Z,1015.65
2017-05-09T07:10:43.915Z,1015.64
2017-05-09T07:11:24.453Z,1015.65
2017-05-09T07:12:04.991Z,1015.67
2017-05-09T07:12:45.521Z,1015.68
2017-05-09T07:13:26.049Z,1015.71
2017-05-09T07:14:06.592Z,1015.71
2017-05-09T07:14:47.131Z,1015.69
2017-05-09T07:15:27.670Z,1015.68
2017-05-09T07:16:08.215Z,1015.66
2017-05-09T07:16:48.767Z,1015.64
2017-05-09T07:17:29.289Z,1015.68
2017-05-09T07:18:09.819Z,1015.67
2017-05-09T07:18:50.374Z,1015.67
2017-05-09T07:19:30.898Z,1015.65
2017-05-09T07:20:11.447Z,1015.61
2017-05-09T07:20:51.974Z,1015.62
2017-05-09T07:21:32.531Z,1015.65
2017-05-09T07:22:13.067Z,1015.62
2017-05-09T07:22:53.594Z,1015.58
2017-05-09T07:23:34.134Z,1015.56
2017-05-09T07:24:14.679Z,1015.54
2017-05-09T07:24:55.215Z,1015.52
2017-05-09T07:25:35.752Z,1015.52
2017-05-09T07:26:16.290Z,1015.52
2017-05-09T07:26:56.830Z,1015.51
2017-05-09T07:27:37.371Z,1015.48
2017-05-09T07:28:17.912Z,1015.47
2017-05-09T07:28:58.446Z,1015.46
2017-05-09T07:29:38.984Z,1015.49
2017-05-09T07:30:19.525Z,1015.47
2017-05-09T07:31:00.058Z,1015.44
2017-05-09T07:31:40.617Z,1015.45
2017-05-09T07:32:21.167Z,1015.45
2017-05-09T07:33:01.700Z,1015.37
2017-05-09T07:33:42.248Z,1015.44
2017-05-09T07:34:22.789Z,1015.43
2017-05-09T07:35:03.322Z,1015.44
2017-05-09T07:35:43.877Z,1015.44
2017-05-09T07:36:24.415Z,1015.43
2017-05-09T07:37:04.946Z,1015.42
2017-05-09T07:37:45.485Z,1015.42
2017-05-09T07:38:26.020Z,1015.42
2017-05-09T07:39:06.565Z,1015.4
2017-05-09T07:39:47.101Z,1015.45
2017-05-09T07:40:27.644Z,1015.4
2017-05-09T07:41:08.162Z,1015.42
2017-05-09T07:41:48.706Z,1015.46
2017-05-09T07:42:29.243Z,1015.4
2017-05-09T07:43:09.789Z,1015.44
2017-05-09T07:43:50.322Z,1015.43
2017-05-09T07:44:30.868Z,1015.42
2017-05-09T07:45:11.405Z,1015.4
2017-05-09T07:45:51.948Z,1015.41
2017-05-09T07:46:32.496Z,1015.39
2017-05-09T07:47:13.039Z,1015.37
2017-05-09T07:47:53.555Z,1015.41
2017-05-09T07:48:34.105Z,1015.4
2017-05-09T07:49:14.621Z,1015.41
2017-05-09T07:49:55.176Z,1015.4
2017-05-09T07:50:35.712Z,1015.41
2017-05-09T07:51:16.277Z,1015.34
2017-05-09T07:51:56.822Z,1015.33
2017-05-09T07:52:37.356Z,1015.32
2017-05-09T07:53:17.896Z,1015.32
2017-05-09T07:53:58.460Z,1015.3
2017-05-09T07:54:39.004Z,1015.27
2017-05-09T07:55:19.545Z,1015.3
2017-05-09T07:56:00.101Z,1015.25
2017-05-09T07:56:40.638Z,1015.3
2017-05-09T07:57:21.205Z,1015.29
2017-05-09T07:58:01.727Z,1015.27
2017-05-09T07:58:42.274Z,1015.18
2017-05-09T07:59:22.808Z,1015.22
2017-05-09T08:00:03.354Z,1015.24
2017-05-09T08:00:43.895Z,1015.27
2017-05-09T08:01:24.437Z,1015.25
2017-05-09T08:02:04.977Z,1015.27
2017-05-09T08:02:45.520Z,1015.26
2017-05-09T08:03:26.064Z,1015.21
2017-05-09T08:04:06.607Z,1015.24
2017-05-09T08:04:47.133Z,1015.26
2017-05-09T08:05:27.677Z,1015.24
2017-05-09T08:06:08.212Z,1015.27
2017-05-09T08:06:48.773Z,1015.22
2017-05-09T08:07:29.303Z,1015.18
2017-05-09T08:08:09.847Z,1015.18
2017-05-09T08:08:50.379Z,1015.2
2017-05-09T08:09:30.922Z,1015.15
2017-05-09T08:10:11.465Z,1015.09
2017-05-09T08:10:52.000Z,1015.14
2017-05-09T08:11:32.537Z,1015.12
2017-05-09T08:12:13.081Z,1015.13
2017-05-09T08:12:53.625Z,1015.14
2017-05-09T08:13:34.157Z,1015.12
2017-05-09T08:14:14.736Z,1015.17
2017-05-09T08:14:55.241Z,1015.17
2017-05-09T08:15:35.779Z,1015.12